Time;durP1;ratioP1;P1;durP2;ratioP2;P2;SDS_P1;SDS_P2;PMS_P1;PMS_P2;Temp;Humidity;BMP_temperature;BMP_pressure;BME280_temperature;BME280_humidity;BME280_pressure;Samples;Min_cycle;Max_cycle;Signal;HPM_P1;HPM_P2
2023/08/20 00:01:29;;;;;;;10.90;10.10;;;23.50;99.90;;;;;;5089178;28;20451;-67
2023/08/20 00:03:57;;;;;;;11.93;10.83;;;23.50;99.90;;;;;;5089181;28;20482;-66
2023/08/20 00:06:25;;;;;;;11.10;10.20;;;23.40;99.90;;;;;;5088508;28;20449;-66
2023/08/20 00:08:52;;;;;;;10.73;9.93;;;23.40;99.90;;;;;;5089471;28;20522;-67
2023/08/20 00:11:21;;;;;;;9.40;8.50;;;23.40;99.90;;;;;;5088798;28;20545;-66
2023/08/20 00:13:47;;;;;;;10.37;9.67;;;23.40;99.90;;;;;;5088411;28;20459;-66
2023/08/20 00:16:15;;;;;;;11.93;10.80;;;23.40;99.90;;;;;;5086830;28;20529;-66
2023/08/20 00:18:42;;;;;;;11.37;10.50;;;23.30;99.90;;;;;;5088842;28;20446;-66
2023/08/20 00:21:10;;;;;;;10.60;9.70;;;23.30;99.90;;;;;;5089161;28;20530;-66
2023/08/20 00:23:37;;;;;;;10.10;9.30;;;23.30;99.90;;;;;;5089123;28;20490;-66
2023/08/20 00:26:05;;;;;;;11.30;10.20;;;23.30;99.90;;;;;;5088170;28;21024;-66
2023/08/20 00:28:34;;;;;;;10.77;9.87;;;23.20;99.90;;;;;;5088757;28;20887;-66
2023/08/20 00:31:02;;;;;;;10.37;9.47;;;23.20;99.90;;;;;;5088958;28;20529;-66
2023/08/20 00:33:29;;;;;;;10.40;9.60;;;23.20;99.90;;;;;;5089027;28;20498;-66
2023/08/20 00:35:55;;;;;;;10.60;9.70;;;23.20;99.90;;;;;;5088673;28;20442;-66
2023/08/20 00:38:22;;;;;;;11.03;10.10;;;23.10;99.90;;;;;;5088883;28;20444;-66
2023/08/20 00:40:49;;;;;;;10.67;9.97;;;23.10;99.90;;;;;;5089251;28;20541;-66
2023/08/20 00:43:16;;;;;;;10.47;9.67;;;23.10;99.90;;;;;;5087073;28;21281;-67
2023/08/20 00:45:44;;;;;;;11.40;10.27;;;23.10;99.90;;;;;;5088920;28;20999;-67
2023/08/20 00:48:12;;;;;;;12.20;11.30;;;23.10;99.90;;;;;;5088345;28;20481;-66
2023/08/20 00:50:40;;;;;;;13.13;11.13;;;23.00;99.90;;;;;;5088761;28;20454;-66
2023/08/20 00:53:08;;;;;;;11.40;10.50;;;23.00;99.90;;;;;;5088900;28;20471;-66
2023/08/20 00:55:36;;;;;;;12.07;10.90;;;23.00;99.90;;;;;;5088903;28;20448;-66
2023/08/20 00:58:03;;;;;;;9.63;8.93;;;22.90;99.90;;;;;;5087807;28;20968;-66
2023/08/20 01:00:30;;;;;;;11.63;10.67;;;22.90;99.90;;;;;;5088756;28;20526;-67
2023/08/20 01:02:58;;;;;;;10.60;9.80;;;22.90;99.90;;;;;;5088339;28;20582;-66
2023/08/20 01:05:25;;;;;;;9.50;8.80;;;22.90;99.90;;;;;;5088454;28;20446;-66
2023/08/20 01:08:08;;;;;;;10.70;9.80;;;22.90;99.90;;;;;;5087844;28;20507;-66
2023/08/20 01:10:43;;;;;;;11.53;10.60;;;22.80;99.90;;;;;;5088734;28;20873;-66
2023/08/20 01:13:11;;;;;;;10.70;9.90;;;22.80;99.90;;;;;;5088582;28;20545;-66
2023/08/20 01:15:37;;;;;;;12.30;11.20;;;22.80;99.90;;;;;;5088431;28;20537;-66
2023/08/20 01:18:06;;;;;;;10.73;9.93;;;22.80;99.90;;;;;;5087798;28;20448;-66
2023/08/20 01:20:40;;;;;;;10.83;10.03;;;22.80;99.90;;;;;;5088549;28;21003;-66
2023/08/20 01:23:30;;;;;;;11.60;10.60;;;22.70;99.90;;;;;;5088276;28;20577;-66
2023/08/20 01:26:14;;;;;;;10.23;9.43;;;22.70;99.90;;;;;;5087505;28;20540;-66
2023/08/20 01:28:43;;;;;;;11.30;10.33;;;22.70;99.90;;;;;;5088237;28;21013;-66
2023/08/20 01:31:11;;;;;;;11.07;10.20;;;22.70;99.90;;;;;;5087993;28;20458;-66
2023/08/20 01:33:38;;;;;;;10.57;9.73;;;22.70;99.90;;;;;;5088206;28;20538;-66
2023/08/20 01:36:10;;;;;;;11.13;10.23;;;22.70;99.90;;;;;;5087128;28;20983;-66
2023/08/20 01:38:37;;;;;;;11.30;10.30;;;22.70;99.90;;;;;;5087926;28;20907;-66
2023/08/20 01:41:04;;;;;;;10.57;9.77;;;22.70;99.90;;;;;;5086446;28;20457;-66
2023/08/20 01:43:31;;;;;;;10.33;9.53;;;22.70;99.90;;;;;;5087971;28;20497;-66
2023/08/20 01:45:59;;;;;;;11.77;10.73;;;22.60;99.90;;;;;;5087612;28;20821;-66
2023/08/20 01:48:26;;;;;;;10.43;9.60;;;22.60;99.90;;;;;;5087993;28;20450;-66
2023/08/20 01:50:53;;;;;;;10.33;9.53;;;22.60;99.90;;;;;;5088170;28;21018;-67
2023/08/20 01:53:20;;;;;;;14.47;10.37;;;22.60;99.90;;;;;;5087768;28;20545;-67
2023/08/20 01:55:47;;;;;;;11.10;10.20;;;22.60;99.90;;;;;;5087580;28;20819;-66
2023/08/20 01:58:13;;;;;;;10.73;9.97;;;22.60;99.90;;;;;;5087429;28;21003;-66
2023/08/20 02:00:40;;;;;;;11.17;10.27;;;22.60;99.90;;;;;;5088115;28;20457;-67
2023/08/20 02:03:08;;;;;;;11.63;10.40;;;22.60;99.90;;;;;;5087804;28;20496;-66
2023/08/20 02:05:35;;;;;;;11.70;10.57;;;22.50;99.90;;;;;;5087791;28;20454;-67
2023/08/20 02:08:02;;;;;;;10.73;9.83;;;22.50;99.90;;;;;;5087048;28;20446;-66
2023/08/20 02:10:29;;;;;;;10.47;9.77;;;22.50;99.90;;;;;;5087546;28;20452;-67
2023/08/20 02:12:56;;;;;;;10.10;9.27;;;22.50;99.90;;;;;;5088023;28;20473;-66
2023/08/20 02:15:23;;;;;;;10.90;10.03;;;22.40;99.90;;;;;;5087848;28;20461;-66
2023/08/20 02:17:50;;;;;;;11.30;10.23;;;22.40;99.90;;;;;;5086949;28;20447;-67
2023/08/20 02:20:18;;;;;;;10.00;9.20;;;22.40;99.90;;;;;;5087276;28;20834;-68
2023/08/20 02:22:45;;;;;;;10.73;10.03;;;22.40;99.90;;;;;;5086347;28;20476;-66
2023/08/20 02:25:12;;;;;;;11.33;9.43;;;22.40;99.90;;;;;;5087075;28;20442;-66
2023/08/20 02:27:39;;;;;;;11.27;10.27;;;22.40;99.90;;;;;;5085196;28;20562;-66
2023/08/20 02:30:07;;;;;;;10.47;9.67;;;22.30;99.90;;;;;;5087419;28;20449;-66
2023/08/20 02:32:34;;;;;;;11.33;10.37;;;22.30;99.90;;;;;;5069905;28;20506;-66
2023/08/20 02:35:01;;;;;;;10.97;10.00;;;22.30;99.90;;;;;;5067502;28;20436;-66
2023/08/20 02:37:29;;;;;;;10.67;9.57;;;22.30;99.90;;;;;;5070503;28;20455;-66
2023/08/20 02:39:56;;;;;;;11.07;10.20;;;22.20;99.90;;;;;;5071255;28;20959;-67
2023/08/20 02:42:23;;;;;;;10.43;9.67;;;22.20;99.90;;;;;;5069451;28;20476;-66
2023/08/20 02:44:50;;;;;;;12.77;11.60;;;22.20;99.90;;;;;;5070989;28;20483;-66
2023/08/20 02:47:16;;;;;;;11.10;10.10;;;22.10;99.90;;;;;;5070199;28;20538;-67
2023/08/20 02:49:43;;;;;;;11.50;10.40;;;22.10;99.90;;;;;;5071183;28;20450;-66
2023/08/20 02:52:10;;;;;;;10.57;9.70;;;22.10;99.90;;;;;;5070906;28;20471;-66
2023/08/20 02:54:38;;;;;;;10.67;9.87;;;22.10;99.90;;;;;;5070865;28;20446;-66
2023/08/20 02:57:05;;;;;;;11.50;10.60;;;22.00;99.90;;;;;;5070044;28;20456;-66
2023/08/20 02:59:32;;;;;;;11.23;10.30;;;22.00;99.90;;;;;;5070861;28;20452;-66
2023/08/20 03:01:59;;;;;;;11.53;10.43;;;22.00;99.90;;;;;;5070447;28;20473;-66
2023/08/20 03:04:25;;;;;;;10.90;10.10;;;21.90;99.90;;;;;;5070923;28;20511;-66
2023/08/20 03:06:52;;;;;;;11.60;10.63;;;21.90;99.90;;;;;;5070152;28;20455;-66
2023/08/20 03:09:19;;;;;;;10.40;9.60;;;21.90;99.90;;;;;;5070576;28;20484;-66
2023/08/20 03:11:47;;;;;;;10.90;10.00;;;21.80;99.90;;;;;;5070426;28;20451;-66
2023/08/20 03:14:14;;;;;;;13.17;10.00;;;21.80;99.90;;;;;;5070394;28;20450;-66
2023/08/20 03:16:41;;;;;;;11.43;10.53;;;21.80;99.90;;;;;;5069610;28;20560;-66
2023/08/20 03:19:08;;;;;;;10.63;9.73;;;21.70;99.90;;;;;;5070296;28;21024;-67
2023/08/20 03:21:35;;;;;;;10.70;10.00;;;21.70;99.90;;;;;;5070128;28;20457;-66
2023/08/20 03:24:02;;;;;;;11.40;10.50;;;21.70;99.90;;;;;;5070466;28;20492;-67
2023/08/20 03:26:29;;;;;;;9.50;8.60;;;21.60;99.90;;;;;;5069528;28;20450;-66
2023/08/20 03:28:58;;;;;;;9.57;8.87;;;21.60;99.90;;;;;;5066807;28;20454;-67
2023/08/20 03:31:25;;;;;;;11.10;10.00;;;21.60;99.90;;;;;;5070548;28;20461;-66
2023/08/20 03:33:52;;;;;;;10.60;9.50;;;21.60;99.90;;;;;;5070408;28;20489;-66
2023/08/20 03:36:19;;;;;;;10.43;9.43;;;21.50;99.90;;;;;;5069696;28;20456;-66
2023/08/20 03:38:45;;;;;;;11.17;10.07;;;21.50;99.90;;;;;;5070311;28;21284;-66
2023/08/20 03:41:12;;;;;;;9.23;8.53;;;21.50;99.90;;;;;;5068364;28;20461;-66
2023/08/20 03:43:39;;;;;;;10.97;9.97;;;21.40;99.90;;;;;;5069615;28;20490;-66
2023/08/20 03:46:07;;;;;;;10.50;9.70;;;21.40;99.90;;;;;;5068480;28;20462;-66
2023/08/20 03:48:34;;;;;;;10.73;9.73;;;21.40;99.90;;;;;;5069667;28;20461;-66
2023/08/20 03:51:01;;;;;;;10.60;9.80;;;21.40;99.90;;;;;;5069767;28;20456;-66
2023/08/20 03:53:28;;;;;;;10.27;9.40;;;21.30;99.90;;;;;;5069605;28;20476;-66
2023/08/20 03:55:54;;;;;;;10.07;9.33;;;21.30;99.90;;;;;;5069218;28;20548;-66
2023/08/20 03:58:21;;;;;;;12.03;10.93;;;21.30;99.90;;;;;;5069918;28;20531;-66
2023/08/20 04:00:48;;;;;;;11.07;10.07;;;21.30;99.90;;;;;;5069962;28;20452;-66
2023/08/20 04:03:19;;;;;;;10.20;9.30;;;21.20;99.90;;;;;;5069384;28;20469;-66
2023/08/20 04:05:46;;;;;;;10.33;9.10;;;21.20;99.90;;;;;;5069414;28;20468;-66
2023/08/20 04:08:13;;;;;;;10.77;9.80;;;21.20;99.90;;;;;;5068778;28;20799;-66
2023/08/20 04:10:44;;;;;;;12.43;11.23;;;21.20;99.90;;;;;;5069500;28;20452;-66
2023/08/20 04:13:11;;;;;;;9.80;9.00;;;21.20;99.90;;;;;;5069474;28;20830;-66
2023/08/20 04:15:38;;;;;;;10.63;9.77;;;21.20;99.90;;;;;;5069404;28;20951;-66
2023/08/20 04:18:05;;;;;;;12.53;10.37;;;21.10;99.90;;;;;;5068542;28;20534;-66
2023/08/20 04:20:34;;;;;;;10.57;9.67;;;21.10;99.90;;;;;;5069144;28;20916;-66
2023/08/20 04:23:01;;;;;;;9.83;9.03;;;21.10;99.90;;;;;;5069465;28;20556;-66
2023/08/20 04:25:28;;;;;;;10.10;9.30;;;21.10;99.90;;;;;;5068874;28;20862;-66
2023/08/20 04:27:54;;;;;;;10.07;9.30;;;21.00;99.90;;;;;;5068532;28;20455;-66
2023/08/20 04:30:21;;;;;;;10.67;9.57;;;21.00;99.90;;;;;;5068891;28;20967;-66
2023/08/20 04:32:48;;;;;;;10.70;9.80;;;21.00;99.90;;;;;;5068781;28;20484;-66
2023/08/20 04:35:15;;;;;;;11.07;10.23;;;21.00;99.90;;;;;;5068894;28;20452;-66
2023/08/20 04:37:43;;;;;;;10.43;9.43;;;21.00;99.90;;;;;;5068202;28;20449;-66
2023/08/20 04:40:12;;;;;;;10.53;9.60;;;21.00;99.90;;;;;;5069018;28;20449;-66
2023/08/20 04:42:39;;;;;;;11.00;10.10;;;21.00;99.90;;;;;;5067068;28;20986;-66
2023/08/20 04:45:07;;;;;;;10.60;9.77;;;21.00;99.90;;;;;;5068419;28;20492;-66
2023/08/20 04:47:33;;;;;;;10.53;9.50;;;21.00;99.90;;;;;;5068123;28;20456;-66
2023/08/20 04:50:01;;;;;;;9.90;9.00;;;21.00;99.90;;;;;;5068898;28;20444;-66
2023/08/20 04:52:27;;;;;;;10.57;9.67;;;20.90;99.90;;;;;;5068532;28;20469;-66
2023/08/20 04:54:56;;;;;;;10.70;9.30;;;20.90;99.90;;;;;;5068866;28;20453;-66
2023/08/20 04:57:23;;;;;;;10.73;9.93;;;20.90;99.90;;;;;;5067997;28;20455;-66
2023/08/20 04:59:50;;;;;;;10.80;9.80;;;20.90;99.90;;;;;;5067883;28;20506;-66
2023/08/20 05:02:16;;;;;;;11.20;10.20;;;20.90;99.90;;;;;;5068264;28;20578;-66
2023/08/20 05:04:43;;;;;;;9.90;9.10;;;20.90;99.90;;;;;;5068118;28;20494;-66
2023/08/20 05:07:10;;;;;;;9.80;9.07;;;20.90;99.90;;;;;;5067805;28;20863;-66
2023/08/20 05:09:37;;;;;;;10.77;9.87;;;20.90;99.90;;;;;;5068373;28;20539;-66
2023/08/20 05:12:06;;;;;;;10.00;9.20;;;21.00;99.90;;;;;;5068182;28;20885;-66
2023/08/20 05:14:33;;;;;;;9.60;8.90;;;21.00;99.90;;;;;;5068138;28;20527;-66
2023/08/20 05:17:00;;;;;;;11.03;10.07;;;21.00;99.90;;;;;;5067538;28;20453;-66
2023/08/20 05:19:27;;;;;;;8.63;7.93;;;21.00;99.90;;;;;;5068238;28;20444;-66
2023/08/20 05:21:55;;;;;;;10.77;9.97;;;21.00;99.90;;;;;;5067967;28;20564;-66
2023/08/20 05:24:22;;;;;;;9.63;8.83;;;21.00;99.90;;;;;;5068309;28;20492;-66
2023/08/20 05:27:04;;;;;;;10.20;9.40;;;21.00;99.90;;;;;;5067350;28;20464;-66
2023/08/20 05:29:32;;;;;;;10.73;9.83;;;21.10;99.90;;;;;;5068102;28;20442;-66
2023/08/20 05:31:59;;;;;;;10.87;9.77;;;21.10;99.90;;;;;;5067693;28;20572;-66
2023/08/20 05:34:26;;;;;;;10.20;9.30;;;21.10;99.90;;;;;;5067854;28;20448;-66
2023/08/20 05:36:52;;;;;;;10.37;9.57;;;21.20;99.90;;;;;;5067040;28;20459;-66
2023/08/20 05:39:19;;;;;;;9.63;8.93;;;21.20;99.90;;;;;;5067822;28;20472;-66
2023/08/20 05:41:46;;;;;;;10.87;10.07;;;21.20;99.90;;;;;;5066631;28;20459;-66
2023/08/20 05:44:13;;;;;;;11.20;10.10;;;21.20;99.90;;;;;;5067964;28;20491;-66
2023/08/20 05:46:41;;;;;;;10.87;9.93;;;21.30;99.90;;;;;;5067233;28;20539;-66
2023/08/20 05:49:08;;;;;;;11.70;10.90;;;21.30;99.90;;;;;;5068010;28;20450;-66
2023/08/20 05:51:35;;;;;;;11.10;10.20;;;21.40;99.90;;;;;;5067569;28;20450;-66
2023/08/20 05:54:01;;;;;;;10.73;9.73;;;21.50;99.90;;;;;;5068244;28;20832;-66
2023/08/20 05:56:28;;;;;;;10.53;9.63;;;21.50;99.90;;;;;;5078485;28;20828;-66
2023/08/20 05:58:55;;;;;;;12.00;10.80;;;21.60;99.90;;;;;;5084004;28;20442;-66
2023/08/20 06:01:22;;;;;;;10.60;9.70;;;21.70;99.90;;;;;;5081552;28;20459;-66
2023/08/20 06:03:50;;;;;;;9.87;8.97;;;21.80;99.90;;;;;;5076216;28;20558;-66
2023/08/20 06:06:17;;;;;;;8.70;8.00;;;22.00;99.90;;;;;;5073342;28;20454;-67
2023/08/20 06:08:44;;;;;;;11.20;10.20;;;22.20;99.90;;;;;;5085307;28;20458;-66
2023/08/20 06:11:11;;;;;;;9.90;9.10;;;22.30;99.90;;;;;;5071086;28;20452;-66
2023/08/20 06:13:38;;;;;;;11.23;10.33;;;22.40;99.90;;;;;;5071629;28;20839;-66
2023/08/20 06:16:05;;;;;;;8.87;8.20;;;22.60;99.90;;;;;;5070960;28;20531;-66
2023/08/20 06:18:33;;;;;;;9.80;9.10;;;22.80;99.90;;;;;;5071650;28;20822;-66
2023/08/20 06:21:01;;;;;;;10.60;9.77;;;23.00;99.90;;;;;;5075093;28;20568;-66
2023/08/20 06:23:27;;;;;;;11.10;10.03;;;23.20;99.90;;;;;;5091677;28;20489;-66
2023/08/20 06:25:54;;;;;;;9.40;8.70;;;23.30;99.90;;;;;;5090987;28;20496;-66
2023/08/20 06:28:21;;;;;;;9.83;8.97;;;23.60;99.90;;;;;;5091428;28;20503;-67
2023/08/20 06:30:48;;;;;;;9.53;8.73;;;23.70;99.90;;;;;;5091327;28;20458;-66
2023/08/20 06:33:15;;;;;;;10.23;9.23;;;23.90;99.90;;;;;;5091248;28;20549;-67
2023/08/20 06:35:42;;;;;;;10.63;9.63;;;24.20;99.90;;;;;;5091399;28;20448;-66
2023/08/20 06:38:10;;;;;;;10.57;9.70;;;24.30;99.90;;;;;;5090745;28;20447;-67
2023/08/20 06:40:37;;;;;;;10.87;10.07;;;24.60;99.90;;;;;;5091354;28;20447;-67
2023/08/20 06:43:04;;;;;;;9.37;8.60;;;24.70;99.90;;;;;;5090108;28;20472;-67
2023/08/20 06:45:31;;;;;;;9.40;8.70;;;24.80;99.90;;;;;;5091249;28;20590;-67
2023/08/20 06:47:58;;;;;;;9.40;8.60;;;25.00;99.90;;;;;;5090928;28;20450;-66
2023/08/20 06:50:25;;;;;;;9.23;8.67;;;25.10;99.90;;;;;;5091328;28;20463;-67
2023/08/20 06:52:52;;;;;;;9.13;8.53;;;25.20;99.90;;;;;;5091126;28;20465;-67
2023/08/20 06:55:20;;;;;;;9.97;9.17;;;25.40;99.90;;;;;;5075635;28;21084;-67
2023/08/20 06:57:47;;;;;;;10.80;9.80;;;25.50;99.90;;;;;;5069917;28;20533;-67
2023/08/20 07:00:14;;;;;;;9.03;8.33;;;25.70;99.90;;;;;;5070700;28;20451;-67
2023/08/20 07:02:41;;;;;;;9.90;8.90;;;25.80;99.90;;;;;;5070570;28;20473;-68
2023/08/20 07:05:09;;;;;;;8.57;7.97;;;25.80;99.90;;;;;;5070433;28;20494;-66
2023/08/20 07:07:36;;;;;;;8.43;7.67;;;25.80;99.90;;;;;;5085198;28;20444;-67
2023/08/20 07:10:04;;;;;;;9.60;8.77;;;25.90;99.90;;;;;;5090567;28;20449;-67
2023/08/20 07:12:32;;;;;;;9.90;8.93;;;26.00;99.90;;;;;;5087974;28;20470;-67
2023/08/20 07:14:59;;;;;;;8.70;8.03;;;26.20;99.90;;;;;;5089608;28;20459;-67
2023/08/20 07:17:26;;;;;;;9.53;8.87;;;26.30;99.90;;;;;;5089160;28;20535;-67
2023/08/20 07:19:52;;;;;;;8.80;8.30;;;26.40;99.90;;;;;;5090542;28;20824;-67
2023/08/20 07:22:19;;;;;;;9.97;9.07;;;26.50;99.90;;;;;;5089437;28;20465;-67
2023/08/20 07:24:46;;;;;;;10.20;9.30;;;26.60;99.90;;;;;;5089858;28;20877;-68
2023/08/20 07:27:13;;;;;;;9.30;8.50;;;26.70;99.90;;;;;;5089124;28;20453;-67
2023/08/20 07:29:42;;;;;;;9.60;8.80;;;26.80;99.90;;;;;;5089893;28;20996;-67
2023/08/20 07:32:10;;;;;;;9.07;8.37;;;26.90;99.90;;;;;;5104387;28;21020;-66
2023/08/20 07:34:36;;;;;;;8.37;7.77;;;27.00;99.90;;;;;;5110441;28;20451;-67
2023/08/20 07:37:04;;;;;;;10.30;8.70;;;27.10;99.90;;;;;;5101318;28;20528;-66
2023/08/20 07:39:31;;;;;;;8.87;8.27;;;27.20;99.90;;;;;;5080891;28;20457;-67
2023/08/20 07:41:58;;;;;;;9.20;8.60;;;27.20;99.90;;;;;;5069537;28;20472;-67
2023/08/20 07:44:25;;;;;;;9.40;8.60;;;27.30;99.90;;;;;;5076411;28;20461;-67
2023/08/20 07:46:53;;;;;;;9.20;8.60;;;27.30;99.90;;;;;;5087590;28;21213;-67
2023/08/20 07:49:20;;;;;;;9.33;8.63;;;27.40;99.90;;;;;;5089801;28;20441;-67
2023/08/20 07:51:48;;;;;;;9.73;8.77;;;27.40;99.90;;;;;;5084869;28;20463;-67
2023/08/20 07:54:15;;;;;;;8.30;7.70;;;27.40;99.90;;;;;;5089338;28;20458;-67
2023/08/20 07:56:41;;;;;;;10.30;9.50;;;27.40;99.90;;;;;;5085233;28;20544;-67
2023/08/20 07:59:08;;;;;;;10.70;9.80;;;27.40;99.90;;;;;;5083517;28;20440;-67
2023/08/20 08:01:35;;;;;;;8.47;7.97;;;27.30;99.90;;;;;;5085941;28;20553;-67
2023/08/20 08:04:04;;;;;;;9.20;8.60;;;27.40;99.90;;;;;;5088167;28;20443;-67
2023/08/20 08:06:30;;;;;;;9.10;8.37;;;27.40;99.90;;;;;;5085193;28;20491;-67
2023/08/20 08:08:57;;;;;;;9.67;8.83;;;27.50;99.90;;;;;;5089450;28;20460;-67
2023/08/20 08:11:25;;;;;;;9.03;8.20;;;27.60;99.90;;;;;;5088041;28;20539;-68
2023/08/20 08:13:51;;;;;;;10.60;9.60;;;27.70;99.90;;;;;;5077383;28;20474;-67
2023/08/20 08:16:18;;;;;;;9.53;8.80;;;27.80;99.90;;;;;;5082416;28;20831;-67
2023/08/20 08:18:45;;;;;;;9.23;8.33;;;27.90;99.90;;;;;;5088826;28;20446;-67
2023/08/20 08:21:13;;;;;;;10.20;9.40;;;27.90;99.90;;;;;;5088563;28;21251;-67
2023/08/20 08:23:40;;;;;;;11.50;10.27;;;28.00;99.90;;;;;;5088283;28;20477;-66
2023/08/20 08:26:07;;;;;;;10.80;9.80;;;28.00;99.90;;;;;;5083803;28;20489;-67
2023/08/20 08:28:34;;;;;;;10.53;9.73;;;28.10;99.90;;;;;;5086605;28;20450;-66
2023/08/20 08:31:00;;;;;;;11.10;10.30;;;28.10;99.90;;;;;;5084116;28;21298;-67
2023/08/20 08:33:28;;;;;;;10.30;9.57;;;28.10;99.90;;;;;;5086307;28;20478;-68
2023/08/20 08:35:54;;;;;;;10.30;9.60;;;28.10;99.90;;;;;;5078893;28;20555;-67
2023/08/20 08:38:23;;;;;;;10.80;10.00;;;28.20;99.90;;;;;;5088158;28;20450;-67
2023/08/20 08:40:50;;;;;;;10.70;9.80;;;28.30;99.90;;;;;;5087731;28;20457;-67
2023/08/20 08:43:18;;;;;;;10.50;9.50;;;28.40;99.90;;;;;;5082892;28;20560;-68
2023/08/20 08:45:48;;;;;;;11.13;10.13;;;28.50;99.90;;;;;;5074286;28;20584;-67
2023/08/20 08:48:15;;;;;;;10.87;9.87;;;28.70;99.90;;;;;;5086140;28;20459;-68
2023/08/20 08:50:42;;;;;;;9.93;9.13;;;28.80;99.90;;;;;;5074920;28;20985;-67
2023/08/20 08:53:09;;;;;;;10.97;9.87;;;28.90;99.90;;;;;;5080967;28;20484;-67
2023/08/20 08:55:38;;;;;;;10.20;9.30;;;29.00;99.90;;;;;;5086568;28;20452;-67
2023/08/20 08:58:05;;;;;;;10.80;10.10;;;29.00;99.90;;;;;;5086028;28;20453;-67
2023/08/20 09:00:32;;;;;;;10.77;10.07;;;29.10;99.90;;;;;;5087566;28;20460;-68
2023/08/20 09:02:59;;;;;;;11.10;10.17;;;29.00;99.90;;;;;;5087343;28;20494;-67
2023/08/20 09:05:26;;;;;;;11.23;10.23;;;28.90;99.90;;;;;;5087827;28;20930;-67
2023/08/20 09:07:56;;;;;;;10.83;10.00;;;28.90;99.90;;;;;;5087170;28;20870;-68
2023/08/20 09:10:26;;;;;;;10.83;10.00;;;28.80;99.90;;;;;;5087809;28;20461;-67
2023/08/20 09:12:55;;;;;;;11.43;10.43;;;28.70;99.90;;;;;;5085906;28;20468;-68
2023/08/20 09:15:22;;;;;;;11.60;10.70;;;28.60;99.90;;;;;;5086937;28;20564;-67
2023/08/20 09:17:49;;;;;;;11.00;10.10;;;28.60;99.90;;;;;;5085328;28;20453;-67
2023/08/20 09:20:16;;;;;;;10.07;9.47;;;28.50;99.90;;;;;;5084854;28;20862;-67
2023/08/20 09:22:50;;;;;;;11.90;11.00;;;28.50;99.90;;;;;;5085573;28;20492;-68
2023/08/20 09:25:17;;;;;;;11.67;10.77;;;28.50;99.90;;;;;;5086943;28;20765;-67
2023/08/20 09:27:44;;;;;;;11.43;10.33;;;28.50;99.90;;;;;;5086153;28;20443;-67
2023/08/20 09:30:20;;;;;;;10.87;9.97;;;28.60;99.90;;;;;;5087698;28;20935;-67
2023/08/20 09:33:03;;;;;;;11.87;10.77;;;28.60;99.90;;;;;;5085553;28;20537;-67
2023/08/20 09:35:29;;;;;;;11.40;10.50;;;28.70;99.90;;;;;;5086891;28;20434;-68
2023/08/20 09:38:00;;;;;;;11.70;10.80;;;28.80;99.90;;;;;;5085417;28;20453;-67
2023/08/20 09:40:27;;;;;;;11.77;10.77;;;28.80;99.90;;;;;;5087126;28;20442;-67
2023/08/20 09:42:55;;;;;;;12.70;11.70;;;28.90;99.90;;;;;;5071891;28;20457;-67
2023/08/20 09:45:26;;;;;;;12.53;11.63;;;28.90;99.90;;;;;;5086876;28;20988;-67
2023/08/20 09:47:56;;;;;;;11.77;10.73;;;29.00;99.90;;;;;;5086302;28;20445;-67
2023/08/20 09:50:24;;;;;;;12.50;11.37;;;29.00;99.90;;;;;;5085487;28;20466;-67
2023/08/20 09:52:58;;;;;;;11.90;10.90;;;29.00;99.90;;;;;;5086232;28;20835;-67
2023/08/20 09:55:30;;;;;;;11.37;10.50;;;29.10;99.90;;;;;;5086745;28;20555;-67
2023/08/20 09:57:59;;;;;;;11.13;10.33;;;29.20;99.90;;;;;;5078107;28;21054;-67
2023/08/20 10:00:29;;;;;;;12.37;11.43;;;29.30;99.90;;;;;;5086793;28;20460;-67
2023/08/20 10:02:57;;;;;;;10.50;9.80;;;29.30;99.90;;;;;;5070280;28;20467;-67
2023/08/20 10:05:24;;;;;;;10.70;9.97;;;29.40;99.90;;;;;;5086621;28;20492;-67
2023/08/20 10:07:52;;;;;;;11.67;10.40;;;29.40;99.90;;;;;;5086257;28;20513;-67
2023/08/20 10:10:19;;;;;;;10.13;9.30;;;29.60;99.90;;;;;;5086883;28;20449;-67
2023/08/20 10:12:48;;;;;;;11.30;10.47;;;29.70;99.90;;;;;;5086568;28;20473;-67
2023/08/20 10:15:16;;;;;;;10.47;9.60;;;29.80;99.90;;;;;;5086774;28;20446;-67
2023/08/20 10:17:46;;;;;;;9.97;9.07;;;29.90;99.90;;;;;;5085972;28;21017;-67
2023/08/20 10:20:16;;;;;;;10.40;9.70;;;30.00;99.90;;;;;;5086838;28;20523;-68
2023/08/20 10:22:44;;;;;;;10.57;9.80;;;30.10;99.90;;;;;;5086309;28;20473;-67
2023/08/20 10:25:12;;;;;;;10.40;9.70;;;30.10;99.90;;;;;;5086662;28;21037;-67
2023/08/20 10:27:42;;;;;;;11.20;10.30;;;30.10;99.90;;;;;;5084122;28;21068;-68
2023/08/20 10:30:15;;;;;;;11.63;10.63;;;30.10;99.90;;;;;;5086567;28;20972;-67
2023/08/20 10:32:48;;;;;;;10.90;9.97;;;30.20;99.90;;;;;;5084841;28;20475;-68
2023/08/20 10:35:17;;;;;;;11.23;10.17;;;30.30;99.90;;;;;;5086662;28;20442;-67
2023/08/20 10:38:04;;;;;;;10.40;9.67;;;30.30;99.90;;;;;;5085743;28;20454;-67
2023/08/20 10:40:52;;;;;;;10.53;9.80;;;30.40;99.90;;;;;;5086280;28;20553;-67
2023/08/20 10:43:28;;;;;;;9.73;8.80;;;30.40;99.90;;;;;;5086185;28;20565;-68
2023/08/20 10:46:16;;;;;;;10.33;9.43;;;30.60;99.90;;;;;;5085330;28;20514;-67
2023/08/20 10:48:48;;;;;;;9.83;8.97;;;30.60;99.90;;;;;;5077370;28;20450;-67
2023/08/20 10:51:16;;;;;;;9.80;9.10;;;30.70;99.90;;;;;;5086560;28;20815;-67
2023/08/20 10:53:44;;;;;;;10.20;9.37;;;30.70;99.90;;;;;;5086754;28;20462;-67
2023/08/20 10:56:13;;;;;;;9.20;8.60;;;30.80;99.80;;;;;;5085889;28;20550;-67
2023/08/20 10:58:43;;;;;;;11.20;10.30;;;30.90;99.90;;;;;;5090148;28;20536;-67
2023/08/20 11:01:16;;;;;;;10.33;9.50;;;30.90;99.60;;;;;;5089968;28;20440;-67
2023/08/20 11:03:46;;;;;;;10.17;9.47;;;31.00;99.30;;;;;;5090082;28;20474;-67
2023/08/20 11:06:13;;;;;;;11.80;10.90;;;31.00;98.80;;;;;;5089086;28;21348;-67
2023/08/20 11:08:40;;;;;;;10.50;9.70;;;31.10;99.40;;;;;;5089399;28;20938;-67
2023/08/20 11:11:08;;;;;;;10.37;9.60;;;31.10;99.10;;;;;;5090109;28;20994;-67
2023/08/20 11:13:36;;;;;;;9.50;8.90;;;31.10;99.20;;;;;;5089516;28;20467;-67
2023/08/20 11:16:04;;;;;;;10.10;9.20;;;31.10;98.70;;;;;;5089382;28;21206;-67
2023/08/20 11:18:33;;;;;;;12.50;11.57;;;31.20;99.40;;;;;;5092307;28;21346;-67
2023/08/20 11:21:02;;;;;;;10.57;9.87;;;31.30;99.70;;;;;;5089495;28;20495;-67
2023/08/20 11:23:30;;;;;;;9.00;8.23;;;31.30;99.60;;;;;;5088860;28;20474;-67
2023/08/20 11:25:57;;;;;;;10.40;9.40;;;31.30;99.30;;;;;;5088527;28;20485;-67
2023/08/20 11:28:26;;;;;;;10.23;9.50;;;31.40;99.00;;;;;;5089189;28;20486;-67
2023/08/20 11:30:55;;;;;;;10.20;9.33;;;31.50;98.10;;;;;;5089611;28;20827;-67
2023/08/20 11:33:22;;;;;;;10.13;9.33;;;31.50;98.10;;;;;;5087212;28;20481;-68
2023/08/20 11:35:50;;;;;;;10.57;9.87;;;31.60;98.40;;;;;;5088536;28;20457;-67
2023/08/20 11:38:18;;;;;;;10.03;9.17;;;31.70;98.90;;;;;;5088052;28;20460;-67
2023/08/20 11:40:45;;;;;;;10.83;10.00;;;31.80;97.40;;;;;;5088949;28;20536;-67
2023/08/20 11:43:12;;;;;;;9.80;9.10;;;31.80;97.10;;;;;;5088057;28;20483;-67
2023/08/20 11:45:47;;;;;;;9.70;9.00;;;31.80;97.00;;;;;;5088873;28;20837;-66
2023/08/20 11:48:14;;;;;;;9.90;9.10;;;31.80;98.30;;;;;;5088420;28;20439;-67
2023/08/20 11:50:41;;;;;;;10.50;9.67;;;31.90;98.20;;;;;;5088775;28;20443;-67
2023/08/20 11:53:09;;;;;;;8.80;8.23;;;32.00;97.20;;;;;;5088795;28;20933;-67
2023/08/20 11:55:40;;;;;;;10.60;9.90;;;32.10;96.70;;;;;;5088651;28;20453;-67
2023/08/20 11:58:06;;;;;;;9.77;8.87;;;32.10;96.90;;;;;;5088626;28;20450;-67
2023/08/20 12:00:33;;;;;;;9.57;8.77;;;32.20;96.30;;;;;;5088980;28;20893;-67
2023/08/20 12:03:00;;;;;;;9.23;8.53;;;32.30;96.10;;;;;;5088523;28;20460;-67
2023/08/20 12:05:28;;;;;;;11.13;10.33;;;32.30;95.80;;;;;;5088442;28;20947;-67
2023/08/20 12:07:59;;;;;;;9.80;9.10;;;32.40;96.00;;;;;;5087764;28;21001;-67
2023/08/20 12:10:27;;;;;;;10.47;9.77;;;32.50;96.70;;;;;;5088512;28;20453;-67
2023/08/20 12:12:55;;;;;;;10.77;9.77;;;32.70;95.30;;;;;;5088127;28;20552;-67
2023/08/20 12:15:23;;;;;;;10.17;9.23;;;32.70;94.00;;;;;;5087151;28;20947;-67
2023/08/20 12:17:58;;;;;;;9.23;8.63;;;32.80;94.50;;;;;;5084286;28;20442;-67
2023/08/20 12:20:27;;;;;;;8.77;8.07;;;32.90;94.70;;;;;;5088247;28;20449;-67
2023/08/20 12:22:54;;;;;;;9.67;8.87;;;33.10;93.90;;;;;;5087887;28;20496;-66
2023/08/20 12:25:21;;;;;;;9.67;8.97;;;33.20;93.70;;;;;;5088178;28;20534;-66
2023/08/20 12:27:48;;;;;;;9.00;8.33;;;33.40;95.40;;;;;;5086439;28;20489;-66
2023/08/20 12:30:16;;;;;;;9.63;8.73;;;33.50;95.30;;;;;;5087935;28;20941;-67
2023/08/20 12:32:43;;;;;;;9.87;9.17;;;33.70;94.30;;;;;;5087298;28;20459;-67
2023/08/20 12:35:10;;;;;;;9.83;9.23;;;33.80;94.80;;;;;;5087984;28;20438;-67
2023/08/20 12:37:37;;;;;;;9.37;8.53;;;34.00;94.20;;;;;;5086653;28;20445;-67
2023/08/20 12:40:09;;;;;;;10.00;9.13;;;34.10;93.00;;;;;;5086790;28;20443;-67